Time;durP1;ratioP1;P1;durP2;ratioP2;P2;SDS_P1;SDS_P2;PMS_P1;PMS_P2;Temp;Humidity;BMP_temperature;BMP_pressure;BME280_temperature;BME280_humidity;BME280_pressure;Samples;Min_cycle;Max_cycle;Signal;HPM_P1;HPM_P2
2022/10/05 00:03:09;;;;;;;6.60;5.87;;;11.00;1.00;;;;;;6333362;27;20240;-53
2022/10/05 00:06:12;;;;;;;5.27;4.97;;;11.00;1.00;;;;;;6334061;27;20258;-54
2022/10/05 00:09:19;;;;;;;5.60;5.07;;;11.00;1.00;;;;;;6333016;28;20239;-53
2022/10/05 00:12:23;;;;;;;5.97;5.37;;;11.00;1.00;;;;;;6316675;28;20670;-53
2022/10/05 00:15:29;;;;;;;5.60;5.17;;;10.90;1.00;;;;;;6333061;28;20228;-54
2022/10/05 00:18:32;;;;;;;5.30;5.00;;;10.90;1.00;;;;;;6333060;27;20236;-54
2022/10/05 00:21:36;;;;;;;5.87;5.37;;;10.90;1.00;;;;;;6330749;27;20336;-54
2022/10/05 00:24:39;;;;;;;6.40;6.00;;;10.90;1.00;;;;;;6327296;28;20477;-54
2022/10/05 00:27:42;;;;;;;7.50;5.80;;;10.90;1.00;;;;;;6331895;27;20247;-54
2022/10/05 00:30:47;;;;;;;6.33;5.87;;;10.80;1.00;;;;;;6308603;28;20328;-54
2022/10/05 00:33:51;;;;;;;6.10;5.50;;;10.80;1.00;;;;;;6328262;28;20231;-55
2022/10/05 00:36:54;;;;;;;6.10;5.60;;;10.80;1.00;;;;;;6333525;28;20239;-55
2022/10/05 00:39:57;;;;;;;5.90;5.43;;;10.80;1.00;;;;;;6331880;28;20747;-52
2022/10/05 00:43:23;;;;;;;8.20;5.43;;;10.80;1.00;;;;;;6320010;28;20616;-53
2022/10/05 00:46:37;;;;;;;5.80;5.20;;;10.80;1.00;;;;;;6308627;28;20224;-54
2022/10/05 00:49:53;;;;;;;5.30;5.00;;;10.80;1.00;;;;;;6313624;27;20229;-53
2022/10/05 00:53:05;;;;;;;6.73;5.17;;;10.80;1.00;;;;;;6330240;27;20744;-54
2022/10/05 00:56:20;;;;;;;5.43;5.03;;;10.80;1.00;;;;;;6323639;28;20490;-54
2022/10/05 00:59:38;;;;;;;5.83;5.43;;;10.70;1.00;;;;;;6315287;28;20224;-52
2022/10/05 01:02:54;;;;;;;8.20;5.47;;;10.70;1.00;;;;;;6327936;27;20232;-54
2022/10/05 01:06:06;;;;;;;5.67;5.27;;;10.70;1.00;;;;;;6331472;27;20235;-54
2022/10/05 01:09:18;;;;;;;6.40;5.80;;;10.80;1.00;;;;;;6320233;27;20274;-54
2022/10/05 01:12:28;;;;;;;6.00;5.40;;;10.80;1.00;;;;;;6307943;28;20232;-53
2022/10/05 01:15:36;;;;;;;5.70;5.20;;;10.80;1.00;;;;;;6320550;28;20231;-54
2022/10/05 01:18:48;;;;;;;5.73;5.40;;;10.80;1.00;;;;;;6328502;28;20228;-54
2022/10/05 01:21:56;;;;;;;5.80;5.50;;;10.80;1.00;;;;;;6335386;27;20236;-54
2022/10/05 01:25:20;;;;;;;5.83;5.37;;;10.80;1.00;;;;;;6329339;27;20232;-53
2022/10/05 01:28:29;;;;;;;5.33;4.90;;;10.80;1.00;;;;;;6312109;28;20240;-53
2022/10/05 01:31:39;;;;;;;7.03;5.53;;;10.80;1.00;;;;;;6312825;28;20312;-54
2022/10/05 01:34:48;;;;;;;5.47;5.03;;;10.80;1.00;;;;;;6332063;27;20226;-54
2022/10/05 01:37:59;;;;;;;5.37;4.97;;;10.70;1.00;;;;;;6333498;27;20228;-54
2022/10/05 01:41:08;;;;;;;6.67;5.30;;;10.70;1.00;;;;;;6320631;28;20243;-53
2022/10/05 01:44:16;;;;;;;5.93;5.53;;;10.70;1.00;;;;;;6337209;28;20240;-54
2022/10/05 01:47:24;;;;;;;5.33;5.10;;;10.70;1.00;;;;;;6334059;27;20594;-52
2022/10/05 01:50:36;;;;;;;5.80;4.77;;;10.70;1.00;;;;;;6329578;27;20236;-53
2022/10/05 01:53:55;;;;;;;5.50;5.00;;;10.70;1.00;;;;;;6331119;27;20231;-53
2022/10/05 01:57:06;;;;;;;5.60;5.20;;;10.60;1.00;;;;;;6321370;28;20685;-54
2022/10/05 02:00:12;;;;;;;5.40;5.13;;;10.60;1.00;;;;;;6343025;28;20260;-54
2022/10/05 02:03:20;;;;;;;4.77;4.60;;;10.50;1.00;;;;;;6340417;27;20240;-55
2022/10/05 02:06:26;;;;;;;4.73;4.50;;;10.50;1.00;;;;;;6315110;28;20232;-55
2022/10/05 02:09:34;;;;;;;4.60;4.40;;;10.50;1.00;;;;;;6312404;28;20360;-55
2022/10/05 02:12:38;;;;;;;5.47;5.10;;;10.50;1.00;;;;;;6312343;28;20256;-53
2022/10/05 02:15:45;;;;;;;5.80;5.30;;;10.40;1.00;;;;;;6312000;28;20228;-54
2022/10/05 02:18:51;;;;;;;5.53;5.13;;;10.40;1.00;;;;;;6311439;28;20233;-52
2022/10/05 02:22:02;;;;;;;6.50;5.90;;;10.30;1.00;;;;;;6336842;27;20243;-54
2022/10/05 02:25:08;;;;;;;5.93;5.07;;;10.30;1.00;;;;;;6315045;28;20344;-54
2022/10/05 02:28:15;;;;;;;5.37;5.03;;;10.30;1.00;;;;;;6311081;28;20232;-54
2022/10/05 02:31:24;;;;;;;5.50;5.13;;;10.30;1.00;;;;;;6330863;28;20628;-54
2022/10/05 02:34:29;;;;;;;5.27;4.93;;;10.30;1.00;;;;;;6334328;27;20224;-54
2022/10/05 02:37:42;;;;;;;4.43;4.33;;;10.20;1.00;;;;;;6331193;27;20719;-54
2022/10/05 02:40:53;;;;;;;5.17;4.90;;;10.20;1.00;;;;;;6335846;27;20236;-54
2022/10/05 02:44:03;;;;;;;4.90;4.70;;;10.20;1.00;;;;;;6333758;27;20655;-55
2022/10/05 02:47:13;;;;;;;5.57;5.27;;;10.10;1.00;;;;;;6333836;27;20243;-54
2022/10/05 02:50:25;;;;;;;5.60;5.10;;;10.10;1.00;;;;;;6334250;27;20661;-53
2022/10/05 02:53:37;;;;;;;5.50;5.30;;;10.10;1.00;;;;;;6328913;27;20243;-53
2022/10/05 02:56:46;;;;;;;5.50;5.20;;;10.10;1.00;;;;;;6335483;27;20224;-52
2022/10/05 02:59:57;;;;;;;5.60;5.20;;;10.10;1.00;;;;;;6312116;28;20233;-54
2022/10/05 03:03:08;;;;;;;5.77;5.43;;;10.00;1.00;;;;;;6316833;28;20634;-54
2022/10/05 03:06:17;;;;;;;5.97;5.67;;;10.10;1.00;;;;;;6335793;27;20238;-53
2022/10/05 03:09:23;;;;;;;6.13;5.73;;;10.00;1.00;;;;;;6335338;28;20228;-54
2022/10/05 03:12:41;;;;;;;6.53;5.97;;;10.00;1.00;;;;;;6310596;27;20228;-54
2022/10/05 03:16:02;;;;;;;6.40;5.90;;;10.00;1.00;;;;;;6309966;28;20244;-53
2022/10/05 03:19:19;;;;;;;6.80;6.10;;;10.10;1.00;;;;;;6321233;27;20308;-54
2022/10/05 03:22:33;;;;;;;5.90;5.60;;;10.10;1.00;;;;;;6335364;27;20232;-52
2022/10/05 03:25:52;;;;;;;6.13;5.67;;;10.10;1.00;;;;;;6312970;27;20240;-52
2022/10/05 03:29:02;;;;;;;8.27;6.43;;;10.20;1.00;;;;;;6330770;27;20236;-52
2022/10/05 03:32:17;;;;;;;7.00;6.40;;;10.20;1.00;;;;;;6315657;27;20238;-52
2022/10/05 03:35:27;;;;;;;7.70;7.17;;;10.20;1.00;;;;;;6326529;27;20232;-54
2022/10/05 03:38:39;;;;;;;6.30;5.93;;;10.20;1.00;;;;;;6336370;27;20231;-54
2022/10/05 03:41:47;;;;;;;6.83;5.90;;;10.20;1.00;;;;;;6331859;27;20347;-52
2022/10/05 03:44:57;;;;;;;6.23;5.73;;;10.30;1.00;;;;;;6329978;28;20236;-53
2022/10/05 03:48:07;;;;;;;6.33;5.97;;;10.30;1.00;;;;;;6336845;27;20236;-54
2022/10/05 03:51:21;;;;;;;6.00;5.60;;;10.30;1.00;;;;;;6330185;27;20236;-54
2022/10/05 03:54:28;;;;;;;6.37;5.87;;;10.30;1.00;;;;;;6339817;27;20232;-52
2022/10/05 03:57:35;;;;;;;7.03;6.07;;;10.40;1.00;;;;;;6337396;27;20223;-54
2022/10/05 04:00:40;;;;;;;7.40;6.67;;;10.40;1.00;;;;;;6336910;27;20267;-53
2022/10/05 04:03:46;;;;;;;6.37;5.90;;;10.40;1.00;;;;;;6331479;27;20759;-53
2022/10/05 04:06:53;;;;;;;6.63;6.03;;;10.40;1.00;;;;;;6330635;27;20232;-55
2022/10/05 04:09:59;;;;;;;6.23;5.83;;;10.40;1.00;;;;;;6331368;28;20229;-54
2022/10/05 04:13:06;;;;;;;7.20;6.67;;;10.40;1.00;;;;;;6330138;27;20505;-52
2022/10/05 04:16:13;;;;;;;6.60;6.00;;;10.40;1.00;;;;;;6329655;27;20259;-52
2022/10/05 04:19:22;;;;;;;6.43;5.93;;;10.40;1.00;;;;;;6330475;27;20438;-54
2022/10/05 04:22:31;;;;;;;6.90;6.30;;;10.50;1.00;;;;;;6328710;27;20620;-54
2022/10/05 04:25:40;;;;;;;7.20;5.70;;;10.50;1.00;;;;;;6330775;28;20449;-54
2022/10/05 04:28:52;;;;;;;7.20;6.40;;;10.40;1.00;;;;;;6332713;27;20231;-54
2022/10/05 04:32:21;;;;;;;5.70;5.30;;;10.40;1.00;;;;;;6334534;27;20236;-54
2022/10/05 04:35:45;;;;;;;6.40;5.70;;;10.40;1.00;;;;;;6328624;27;20618;-54
2022/10/05 04:38:58;;;;;;;6.63;6.03;;;10.40;1.00;;;;;;6327847;28;20229;-54
2022/10/05 04:42:09;;;;;;;6.37;5.80;;;10.40;1.00;;;;;;6321518;27;20238;-54
2022/10/05 04:45:22;;;;;;;6.27;5.83;;;10.40;1.00;;;;;;6324750;27;20239;-54
2022/10/05 04:48:46;;;;;;;6.57;5.90;;;10.40;1.00;;;;;;6324206;27;20235;-54
2022/10/05 04:51:58;;;;;;;7.13;6.40;;;10.40;1.00;;;;;;6343779;27;21108;-53
2022/10/05 04:55:14;;;;;;;6.50;5.90;;;10.40;1.00;;;;;;6333852;27;20488;-54
2022/10/05 04:58:26;;;;;;;6.63;6.20;;;10.40;1.00;;;;;;6340946;27;20246;-53
2022/10/05 05:01:41;;;;;;;6.80;6.17;;;10.40;1.00;;;;;;6336229;27;20251;-53
2022/10/05 05:05:07;;;;;;;6.20;5.77;;;10.30;1.00;;;;;;6332198;27;20259;-53
2022/10/05 05:08:27;;;;;;;6.23;5.90;;;10.30;1.00;;;;;;6327571;27;20235;-54
2022/10/05 05:11:38;;;;;;;8.13;6.10;;;10.40;1.00;;;;;;6334212;27;20228;-53
2022/10/05 05:15:03;;;;;;;7.20;6.63;;;10.40;1.00;;;;;;6318217;27;20229;-51
2022/10/05 05:18:37;;;;;;;7.23;6.63;;;10.40;1.00;;;;;;6331361;27;20612;-53
2022/10/05 05:21:48;;;;;;;6.87;6.27;;;10.40;1.00;;;;;;6338943;27;20235;-54
2022/10/05 05:25:05;;;;;;;6.90;6.40;;;10.40;1.00;;;;;;6330013;27;20231;-54
2022/10/05 05:28:24;;;;;;;6.83;6.23;;;10.40;1.00;;;;;;6335064;27;20233;-53
2022/10/05 05:31:40;;;;;;;8.97;6.40;;;10.40;1.00;;;;;;6333197;27;20840;-54
2022/10/05 05:34:55;;;;;;;7.20;6.60;;;10.40;1.00;;;;;;6337983;27;20365;-54
2022/10/05 05:38:07;;;;;;;6.13;5.73;;;10.20;1.00;;;;;;6332023;27;20601;-53
2022/10/05 05:41:12;;;;;;;7.40;6.90;;;10.40;1.00;;;;;;6335758;27;20276;-55
2022/10/05 05:44:23;;;;;;;10.17;6.83;;;10.40;1.00;;;;;;6340095;27;20266;-54
2022/10/05 05:47:33;;;;;;;7.60;6.90;;;10.40;1.00;;;;;;6332777;27;20247;-54
2022/10/05 05:50:48;;;;;;;8.03;7.33;;;10.50;1.00;;;;;;6345424;27;20231;-54
2022/10/05 05:53:56;;;;;;;9.07;6.57;;;10.50;1.00;;;;;;6332777;27;20224;-53
2022/10/05 05:57:09;;;;;;;7.00;6.60;;;10.50;1.00;;;;;;6337170;27;20781;-53
2022/10/05 06:00:21;;;;;;;6.83;6.27;;;10.60;1.00;;;;;;6336063;27;20641;-53
2022/10/05 06:03:30;;;;;;;9.53;7.10;;;10.70;1.00;;;;;;6331455;27;20243;-52
2022/10/05 06:06:38;;;;;;;7.50;6.30;;;10.70;1.00;;;;;;6332625;27;20239;-54
2022/10/05 06:09:45;;;;;;;6.93;6.30;;;10.80;1.00;;;;;;6332266;27;20235;-54
2022/10/05 06:12:52;;;;;;;7.50;6.70;;;10.80;1.00;;;;;;6334249;27;20240;-54
2022/10/05 06:16:09;;;;;;;7.03;6.33;;;10.80;1.00;;;;;;6335159;27;20408;-55
2022/10/05 06:19:15;;;;;;;5.97;5.67;;;10.80;1.00;;;;;;6340955;27;20580;-54
2022/10/05 06:22:24;;;;;;;6.87;6.10;;;10.90;1.00;;;;;;6340357;27;20247;-54
2022/10/05 06:25:38;;;;;;;6.67;6.03;;;11.00;1.00;;;;;;6328567;27;20235;-56
2022/10/05 06:28:42;;;;;;;7.97;6.33;;;11.10;1.00;;;;;;6336584;27;20235;-53
2022/10/05 06:32:02;;;;;;;6.80;6.33;;;11.10;1.00;;;;;;6343704;27;20649;-54
2022/10/05 06:35:15;;;;;;;8.67;6.17;;;11.20;1.00;;;;;;6335664;27;20729;-54
2022/10/05 06:38:48;;;;;;;8.50;6.80;;;11.10;1.00;;;;;;6329536;27;20612;-53
2022/10/05 06:42:06;;;;;;;7.20;6.50;;;11.20;1.00;;;;;;6336672;27;20243;-53
2022/10/05 06:45:18;;;;;;;11.87;6.60;;;11.20;1.00;;;;;;6321619;27;20236;-53
2022/10/05 06:48:34;;;;;;;5.93;5.60;;;11.30;1.00;;;;;;6332615;27;20362;-51
2022/10/05 06:51:44;;;;;;;6.13;5.70;;;11.40;1.00;;;;;;6337121;27;20240;-53
2022/10/05 06:54:58;;;;;;;5.83;5.33;;;11.40;1.00;;;;;;6334628;27;20228;-52
2022/10/05 06:58:16;;;;;;;5.80;5.33;;;11.50;1.00;;;;;;6333136;27;20243;-53
2022/10/05 07:01:32;;;;;;;6.47;5.97;;;11.60;1.00;;;;;;6333681;27;20604;-53
2022/10/05 07:04:56;;;;;;;7.63;6.40;;;11.70;1.00;;;;;;6329443;27;20694;-54
2022/10/05 07:08:03;;;;;;;7.00;6.27;;;11.70;1.00;;;;;;6334552;28;20247;-53
2022/10/05 07:11:15;;;;;;;6.57;5.60;;;11.80;1.00;;;;;;6326961;27;20283;-53
2022/10/05 07:14:31;;;;;;;6.30;5.70;;;11.80;1.00;;;;;;6333216;27;20630;-53
2022/10/05 07:17:48;;;;;;;6.57;5.70;;;11.80;1.00;;;;;;6328691;27;20729;-56
2022/10/05 07:20:59;;;;;;;7.63;5.67;;;11.80;1.00;;;;;;6331850;27;20224;-53
2022/10/05 07:24:13;;;;;;;7.20;6.43;;;11.80;1.00;;;;;;6336934;27;20236;-52
2022/10/05 07:27:19;;;;;;;9.27;6.00;;;11.90;1.00;;;;;;6329540;27;20549;-53
2022/10/05 07:30:23;;;;;;;6.70;6.10;;;12.00;1.00;;;;;;6337860;27;20232;-57
2022/10/05 07:33:34;;;;;;;5.97;5.53;;;12.00;1.00;;;;;;6339706;27;20377;-53
2022/10/05 07:40:12;;;;;;;5.43;5.03;;;12.20;1.00;;;;;;6331760;27;20760;-54
2022/10/05 07:43:28;;;;;;;6.70;5.17;;;12.30;1.00;;;;;;6336481;27;20250;-54
2022/10/05 07:46:54;;;;;;;5.47;5.07;;;12.50;1.00;;;;;;6326884;27;20538;-52
2022/10/05 07:50:02;;;;;;;5.43;5.03;;;12.70;1.00;;;;;;6336773;27;20236;-52
2022/10/05 07:53:15;;;;;;;8.57;5.03;;;12.80;1.00;;;;;;6329983;27;20224;-53
2022/10/05 07:56:23;;;;;;;5.40;5.10;;;12.90;1.00;;;;;;6335434;27;20262;-53
2022/10/05 07:59:31;;;;;;;5.20;4.70;;;13.00;1.00;;;;;;6327546;27;20232;-54
2022/10/05 08:02:43;;;;;;;6.37;4.73;;;13.00;1.00;;;;;;6333556;27;20239;-55
2022/10/05 08:05:47;;;;;;;4.53;4.23;;;13.20;1.00;;;;;;6324246;27;20332;-52
2022/10/05 08:08:56;;;;;;;5.33;4.83;;;13.30;1.00;;;;;;6330642;27;20231;-52
2022/10/05 08:12:09;;;;;;;4.87;4.60;;;13.50;1.00;;;;;;6331652;27;20793;-54
2022/10/05 08:15:15;;;;;;;10.17;5.07;;;13.60;1.00;;;;;;6334032;27;20236;-54
2022/10/05 08:18:26;;;;;;;5.43;4.97;;;13.70;1.00;;;;;;6328665;27;20235;-53
2022/10/05 08:21:34;;;;;;;6.17;4.50;;;13.80;1.00;;;;;;6329207;27;20224;-52
2022/10/05 08:24:45;;;;;;;10.13;5.27;;;13.80;1.00;;;;;;6339910;27;20389;-53
2022/10/05 08:27:53;;;;;;;4.90;4.50;;;13.90;1.00;;;;;;6323586;28;20250;-54
2022/10/05 08:31:03;;;;;;;5.53;5.07;;;13.90;1.00;;;;;;6331286;28;20797;-54
2022/10/05 08:34:25;;;;;;;5.20;4.63;;;14.00;1.00;;;;;;6331908;27;20521;-52
2022/10/05 08:37:32;;;;;;;5.47;4.97;;;14.10;1.00;;;;;;6328378;28;20240;-52
2022/10/05 08:41:05;;;;;;;5.20;5.00;;;14.10;1.00;;;;;;6329756;28;20681;-53
2022/10/05 08:44:47;;;;;;;4.83;4.50;;;14.20;1.00;;;;;;6309244;28;20227;-53
2022/10/05 08:48:15;;;;;;;4.37;4.00;;;14.30;1.00;;;;;;6325818;27;20787;-54
2022/10/05 08:51:49;;;;;;;4.97;4.57;;;14.50;1.00;;;;;;6333383;27;20224;-54
2022/10/05 08:55:27;;;;;;;4.77;4.37;;;14.70;1.00;;;;;;6325679;27;20224;-54
2022/10/05 08:58:49;;;;;;;5.67;4.63;;;14.80;1.00;;;;;;6329559;27;20283;-54
2022/10/05 09:02:20;;;;;;;4.83;4.37;;;14.90;1.00;;;;;;6322048;28;20240;-53
2022/10/05 09:05:46;;;;;;;4.50;4.23;;;14.90;1.00;;;;;;6330598;27;20654;-53
2022/10/05 09:09:12;;;;;;;5.37;4.87;;;15.00;1.00;;;;;;6334490;27;20224;-51
2022/10/05 09:12:40;;;;;;;6.00;5.37;;;15.20;1.00;;;;;;6323806;27;20228;-52
2022/10/05 09:16:07;;;;;;;6.07;5.13;;;15.30;1.00;;;;;;6330939;27;20245;-51
2022/10/05 09:19:38;;;;;;;5.47;4.93;;;15.40;1.00;;;;;;6330396;27;20736;-54
2022/10/05 09:23:06;;;;;;;5.33;4.53;;;15.50;1.00;;;;;;6327075;27;20720;-51
2022/10/05 09:26:42;;;;;;;6.43;4.67;;;15.70;1.00;;;;;;6319333;28;20439;-53
2022/10/05 09:30:12;;;;;;;5.63;4.20;;;15.70;1.00;;;;;;6320624;28;20216;-52
2022/10/05 09:33:34;;;;;;;5.20;4.23;;;15.90;1.00;;;;;;6330581;28;20586;-53
2022/10/05 09:37:21;;;;;;;4.87;4.57;;;16.00;1.00;;;;;;6325566;28;20516;-52
2022/10/05 09:40:59;;;;;;;10.07;4.97;;;16.00;1.00;;;;;;6331117;27;20595;-54
2022/10/05 09:44:55;;;;;;;4.67;4.37;;;15.90;1.00;;;;;;6334194;27;20235;-52
2022/10/05 09:48:37;;;;;;;5.07;4.77;;;16.00;1.00;;;;;;6331334;28;20517;-53
2022/10/05 09:52:10;;;;;;;5.80;4.60;;;16.10;1.00;;;;;;6325597;27;20233;-54
2022/10/05 09:55:45;;;;;;;6.80;4.50;;;16.20;1.00;;;;;;6335240;27;20415;-52
2022/10/05 09:59:33;;;;;;;4.73;4.40;;;16.20;1.00;;;;;;6335083;27;20253;-52
2022/10/05 10:03:04;;;;;;;5.23;4.83;;;16.20;1.00;;;;;;6337552;27;20255;-52
2022/10/05 10:06:20;;;;;;;4.63;4.33;;;16.20;1.00;;;;;;6333210;27;20242;-52
2022/10/05 10:09:34;;;;;;;5.27;4.87;;;16.20;1.00;;;;;;6341758;27;20235;-53
2022/10/05 10:12:59;;;;;;;6.50;4.73;;;16.30;1.00;;;;;;6332737;27;20840;-54
2022/10/05 10:16:23;;;;;;;5.60;4.57;;;16.20;1.00;;;;;;6338369;27;20228;-52
2022/10/05 10:19:46;;;;;;;5.13;4.60;;;16.10;1.00;;;;;;6331203;27;20312;-54
2022/10/05 10:23:21;;;;;;;5.07;4.57;;;16.10;1.00;;;;;;6338922;27;20254;-54
2022/10/05 10:26:58;;;;;;;5.57;5.10;;;16.00;1.00;;;;;;6336459;27;20228;-53
2022/10/05 10:30:25;;;;;;;5.03;4.63;;;16.00;1.00;;;;;;6336465;27;20251;-55
2022/10/05 10:34:01;;;;;;;5.00;4.73;;;16.20;1.00;;;;;;6336560;27;20242;-54
2022/10/05 10:37:38;;;;;;;4.50;4.10;;;16.20;1.00;;;;;;6331211;27;20223;-52
2022/10/05 10:40:57;;;;;;;5.73;4.97;;;16.30;1.00;;;;;;6335642;27;20235;-58
2022/10/05 10:44:28;;;;;;;5.47;4.90;;;16.30;1.00;;;;;;6334533;28;20241;-54
2022/10/05 10:47:41;;;;;;;5.60;5.10;;;16.30;1.00;;;;;;6329926;27;20255;-53
2022/10/05 10:51:13;;;;;;;8.47;4.70;;;16.30;1.00;;;;;;6333139;27;20298;-55
2022/10/05 10:54:43;;;;;;;5.33;4.93;;;16.30;1.00;;;;;;6339251;27;20324;-53
2022/10/05 10:58:28;;;;;;;5.90;4.60;;;16.40;1.00;;;;;;6333616;27;20693;-54
2022/10/05 11:01:37;;;;;;;4.90;4.53;;;16.40;1.00;;;;;;6335818;27;20255;-55
2022/10/05 11:05:07;;;;;;;5.17;4.70;;;16.60;1.00;;;;;;6335101;27;20455;-52
2022/10/05 11:08:40;;;;;;;5.40;5.00;;;16.70;1.00;;;;;;6330331;27;20238;-53
2022/10/05 11:12:20;;;;;;;4.87;4.60;;;16.70;1.00;;;;;;6333683;27;20239;-53
2022/10/05 11:15:55;;;;;;;6.07;5.43;;;16.90;1.00;;;;;;6320327;27;20232;-52
2022/10/05 11:19:15;;;;;;;5.67;5.23;;;17.00;1.00;;;;;;6332544;27;20271;-54
2022/10/05 11:22:46;;;;;;;6.73;4.60;;;17.20;1.00;;;;;;6333915;27;20240;-53
2022/10/05 11:26:14;;;;;;;4.77;4.60;;;17.50;1.00;;;;;;6332538;27;20680;-54
2022/10/05 11:30:02;;;;;;;5.60;5.20;;;17.90;1.00;;;;;;6332701;27;20224;-54
2022/10/05 11:33:47;;;;;;;5.03;4.57;;;18.10;1.00;;;;;;6337358;27;20242;-53
2022/10/05 11:37:38;;;;;;;4.50;4.30;;;18.10;1.00;;;;;;6329121;27;20251;-52
2022/10/05 11:41:03;;;;;;;4.90;4.50;;;18.20;1.00;;;;;;6326219;27;20589;-54
2022/10/05 11:44:50;;;;;;;7.07;5.43;;;18.50;1.00;;;;;;6331058;27;20224;-55
2022/10/05 11:48:21;;;;;;;4.83;4.50;;;18.60;1.00;;;;;;6330794;27;20326;-54
2022/10/05 11:51:34;;;;;;;10.93;4.73;;;18.60;1.00;;;;;;6333305;27;20244;-54
2022/10/05 11:54:59;;;;;;;5.47;5.03;;;18.50;1.00;;;;;;6339232;27;20232;-52
2022/10/05 11:58:24;;;;;;;5.00;4.70;;;18.70;1.00;;;;;;6327879;28;20587;-53
2022/10/05 12:01:33;;;;;;;5.13;4.83;;;18.60;1.00;;;;;;6334383;27;20232;-54
2022/10/05 12:04:47;;;;;;;6.13;4.70;;;18.60;1.00;;;;;;6327635;27;20477;-52
2022/10/05 12:08:00;;;;;;;5.37;4.97;;;18.50;1.00;;;;;;6326780;27;20234;-52
2022/10/05 12:11:13;;;;;;;5.17;4.87;;;18.50;1.00;;;;;;6324712;27;20236;-52
2022/10/05 12:14:27;;;;;;;4.63;4.33;;;18.50;1.00;;;;;;6336515;27;20235;-53
2022/10/05 12:17:36;;;;;;;4.73;4.37;;;18.50;1.00;;;;;;6339848;27;20235;-53
2022/10/05 12:20:45;;;;;;;4.63;4.33;;;18.70;1.00;;;;;;6335179;27;20228;-54
2022/10/05 12:23:53;;;;;;;5.00;4.70;;;18.90;1.00;;;;;;6337222;27;20227;-53
2022/10/05 12:27:01;;;;;;;5.07;4.70;;;19.10;1.00;;;;;;6332343;27;20234;-53
2022/10/05 12:30:12;;;;;;;5.07;4.50;;;19.30;1.00;;;;;;6333197;27;20263;-54
2022/10/05 12:33:19;;;;;;;5.10;4.40;;;19.40;1.00;;;;;;6324061;27;20236;-53
2022/10/05 12:36:29;;;;;;;4.30;3.90;;;19.60;1.00;;;;;;6340326;27;20227;-54
2022/10/05 12:40:00;;;;;;;3.90;3.67;;;19.60;1.00;;;;;;6323860;27;20274;-53
2022/10/05 12:43:15;;;;;;;3.70;3.50;;;19.70;1.00;;;;;;6333298;27;20236;-53
2022/10/05 12:46:27;;;;;;;3.67;3.57;;;19.60;1.00;;;;;;6331412;27;20232;-53
2022/10/05 12:49:54;;;;;;;3.03;3.00;;;19.60;1.00;;;;;;6328162;27;20392;-54
2022/10/05 12:53:24;;;;;;;3.57;3.37;;;19.70;1.00;;;;;;6330213;27;20243;-54
2022/10/05 12:56:41;;;;;;;3.70;3.50;;;19.70;1.00;;;;;;6331380;28;20232;-52
2022/10/05 12:59:53;;;;;;;4.87;3.60;;;19.80;1.00;;;;;;6329804;27;20307;-53
2022/10/05 13:03:01;;;;;;;5.30;3.33;;;19.90;1.00;;;;;;6331885;27;20606;-53
2022/10/05 13:06:14;;;;;;;3.63;3.47;;;19.80;1.00;;;;;;6333414;27;20457;-52
2022/10/05 13:09:24;;;;;;;4.00;3.70;;;19.90;1.00;;;;;;6330425;27;20235;-53
2022/10/05 13:12:40;;;;;;;3.40;3.20;;;19.90;1.00;;;;;;6332106;28;20391;-54
2022/10/05 13:15:50;;;;;;;3.77;3.57;;;20.00;1.00;;;;;;6326307;27;20236;-54
2022/10/05 13:19:04;;;;;;;4.30;3.50;;;20.00;1.00;;;;;;6343065;27;20228;-52
2022/10/05 13:22:26;;;;;;;3.80;3.50;;;20.00;1.00;;;;;;6338429;27;20232;-54
2022/10/05 13:25:32;;;;;;;3.87;3.47;;;20.00;1.00;;;;;;6336621;27;20232;-54
2022/10/05 13:28:41;;;;;;;3.67;3.40;;;20.00;1.00;;;;;;6336205;27;20468;-53
2022/10/05 13:31:53;;;;;;;3.50;3.30;;;20.10;1.00;;;;;;6340983;27;20236;-53
2022/10/05 13:35:05;;;;;;;3.87;3.70;;;20.00;1.00;;;;;;6333727;27;20262;-54
2022/10/05 13:38:26;;;;;;;3.60;3.40;;;19.90;1.00;;;;;;6330997;27;20293;-53
2022/10/05 13:41:40;;;;;;;3.90;3.70;;;20.00;1.00;;;;;;6336894;27;20618;-54
2022/10/05 13:44:47;;;;;;;5.13;3.60;;;20.20;1.00;;;;;;6331590;27;20258;-53
2022/10/05 13:48:08;;;;;;;3.80;3.47;;;20.10;1.00;;;;;;6335679;27;20480;-54
2022/10/05 13:51:18;;;;;;;5.30;3.47;;;20.20;1.00;;;;;;6336679;27;20630;-54
2022/10/05 13:54:28;;;;;;;3.17;3.07;;;20.10;1.00;;;;;;6336699;27;20486;-53
2022/10/05 13:57:44;;;;;;;3.53;3.00;;;20.00;1.00;;;;;;6335128;27;20602;-52
2022/10/05 14:00:52;;;;;;;3.60;3.40;;;20.10;1.00;;;;;;6336384;27;20232;-53
2022/10/05 14:04:15;;;;;;;3.80;3.60;;;20.10;1.00;;;;;;6335398;27;20228;-54
2022/10/05 14:07:32;;;;;;;4.77;3.87;;;20.00;1.00;;;;;;6334896;27;20229;-53
2022/10/05 14:10:38;;;;;;;4.07;3.87;;;20.10;1.00;;;;;;6336121;27;20240;-53
2022/10/05 14:13:46;;;;;;;3.90;3.70;;;20.10;1.00;;;;;;6340413;27;20231;-54
2022/10/05 14:16:52;;;;;;;3.53;3.43;;;20.00;1.00;;;;;;6342104;27;20620;-52
2022/10/05 14:19:59;;;;;;;3.07;3.07;;;19.90;1.00;;;;;;6330607;27;20235;-53
2022/10/05 14:23:12;;;;;;;4.17;3.80;;;19.80;1.00;;;;;;6326996;27;20660;-54
2022/10/05 14:26:34;;;;;;;3.97;3.83;;;19.80;1.00;;;;;;6332006;27;20233;-54
2022/10/05 14:29:38;;;;;;;3.67;3.47;;;19.70;1.00;;;;;;6332807;27;20689;-55
2022/10/05 14:32:48;;;;;;;4.07;3.77;;;19.60;1.00;;;;;;6313839;27;20240;-52
2022/10/05 14:35:54;;;;;;;4.17;3.80;;;19.60;1.00;;;;;;6327288;27;20227;-53
2022/10/05 14:39:00;;;;;;;6.60;4.20;;;19.60;1.00;;;;;;6331515;27;20779;-53
2022/10/05 14:42:14;;;;;;;4.27;4.03;;;19.50;1.00;;;;;;6332884;27;20244;-54
2022/10/05 14:45:19;;;;;;;4.10;3.70;;;19.50;1.00;;;;;;6334070;27;20227;-53
2022/10/05 14:48:24;;;;;;;4.10;3.90;;;19.40;1.00;;;;;;6334888;28;20235;-55
2022/10/05 14:51:32;;;;;;;3.90;3.53;;;19.30;1.00;;;;;;6333881;27;20239;-52
2022/10/05 14:54:45;;;;;;;4.03;3.83;;;19.20;1.00;;;;;;6338163;27;20584;-54
2022/10/05 14:57:59;;;;;;;4.43;4.07;;;19.20;1.00;;;;;;6335543;27;20240;-54
2022/10/05 15:01:11;;;;;;;4.90;4.60;;;19.10;1.00;;;;;;6332865;27;20422;-56
2022/10/05 15:04:23;;;;;;;4.53;4.17;;;19.10;1.00;;;;;;6335778;27;20660;-53
2022/10/05 15:07:37;;;;;;;4.10;3.80;;;19.00;1.00;;;;;;6335961;27;20821;-54
2022/10/05 15:10:45;;;;;;;4.20;4.00;;;19.00;1.00;;;;;;6328472;27;20228;-53
2022/10/05 15:13:48;;;;;;;3.90;3.73;;;18.90;1.00;;;;;;6333722;27;20231;-55
2022/10/05 15:16:53;;;;;;;4.50;4.20;;;18.80;1.00;;;;;;6339016;27;20896;-54
2022/10/05 15:20:03;;;;;;;4.10;3.67;;;18.80;1.00;;;;;;6325112;28;20241;-52
2022/10/05 15:23:23;;;;;;;6.30;3.50;;;18.70;1.00;;;;;;6333502;27;20242;-56
2022/10/05 15:26:38;;;;;;;3.60;3.50;;;18.60;1.00;;;;;;6321797;27;20874;-54
2022/10/05 15:29:58;;;;;;;3.93;3.63;;;18.60;1.00;;;;;;6334629;27;20235;-53
2022/10/05 15:33:12;;;;;;;5.10;3.57;;;18.60;1.00;;;;;;6325535;27;20240;-53
2022/10/05 15:36:18;;;;;;;4.00;3.70;;;18.40;1.00;;;;;;6330714;27;20385;-55
2022/10/05 15:39:33;;;;;;;5.77;4.13;;;18.40;1.00;;;;;;6322324;27;20243;-54
2022/10/05 15:42:40;;;;;;;4.23;3.97;;;18.40;1.00;;;;;;6328861;27;20630;-52
2022/10/05 15:45:48;;;;;;;4.13;4.00;;;18.30;1.00;;;;;;6336309;27;20236;-53
2022/10/05 15:49:07;;;;;;;4.30;3.97;;;18.30;1.00;;;;;;6330759;27;20239;-55
2022/10/05 15:52:22;;;;;;;4.90;3.80;;;18.20;1.00;;;;;;6332085;27;20236;-54
2022/10/05 15:55:34;;;;;;;4.27;4.07;;;18.20;1.00;;;;;;6336894;27;20239;-54
2022/10/05 15:58:46;;;;;;;3.77;3.60;;;18.10;1.00;;;;;;6325820;27;20979;-54
2022/10/05 16:01:54;;;;;;;4.37;4.27;;;18.00;1.00;;;;;;6331768;27;20246;-53
2022/10/05 16:05:07;;;;;;;4.53;4.23;;;17.90;1.00;;;;;;6329668;27;20232;-54
2022/10/05 16:11:59;;;;;;;4.43;4.03;;;17.80;1.00;;;;;;6324473;27;20243;-55
2022/10/05 16:15:25;;;;;;;4.13;3.97;;;17.80;1.00;;;;;;6325517;27;20744;-54
2022/10/05 16:18:47;;;;;;;4.20;4.03;;;17.70;1.00;;;;;;6332140;27;20597;-54
2022/10/05 16:21:56;;;;;;;4.27;4.07;;;17.60;1.00;;;;;;6332319;28;20676;-53
2022/10/05 16:25:08;;;;;;;6.37;4.33;;;17.60;1.00;;;;;;6330737;27;20604;-53
2022/10/05 16:28:21;;;;;;;4.30;4.10;;;17.50;1.00;;;;;;6330465;28;20262;-54
2022/10/05 16:31:30;;;;;;;4.70;4.30;;;17.50;1.00;;;;;;6341807;27;20243;-55
2022/10/05 16:34:48;;;;;;;4.43;4.33;;;17.40;1.00;;;;;;6340499;27;20231;-53
2022/10/05 16:38:04;;;;;;;5.00;4.70;;;17.30;1.00;;;;;;6324484;27;20224;-53
2022/10/05 16:41:15;;;;;;;4.37;4.27;;;17.30;1.00;;;;;;6326678;27;20236;-53
2022/10/05 16:44:31;;;;;;;4.97;4.67;;;17.20;1.00;;;;;;6334976;27;20238;-53
2022/10/05 16:47:45;;;;;;;5.27;5.00;;;17.10;1.00;;;;;;6324368;27;20236;-54
2022/10/05 16:51:02;;;;;;;5.23;4.90;;;17.10;1.00;;;;;;6319266;27;20476;-52
2022/10/05 16:54:18;;;;;;;4.80;4.60;;;17.00;1.00;;;;;;6318215;28;20242;-53
2022/10/05 16:57:24;;;;;;;5.33;5.03;;;16.90;1.00;;;;;;6333313;28;20224;-53
2022/10/05 17:00:37;;;;;;;5.07;4.90;;;16.90;1.00;;;;;;6331429;27;20228;-54
2022/10/05 17:03:53;;;;;;;5.20;5.00;;;16.80;1.00;;;;;;6320923;28;20616;-53
2022/10/05 17:07:19;;;;;;;5.53;5.23;;;16.70;1.00;;;;;;6329967;28;20247;-52
2022/10/05 17:10:39;;;;;;;6.53;5.60;;;16.60;1.00;;;;;;6329544;27;20227;-54
2022/10/05 17:14:08;;;;;;;6.03;5.63;;;16.60;1.00;;;;;;6325438;27;20252;-55
2022/10/05 17:17:38;;;;;;;5.73;5.47;;;16.50;1.00;;;;;;6332690;27;20232;-53
2022/10/05 17:20:57;;;;;;;6.63;6.17;;;16.40;1.00;;;;;;6332102;27;20664;-53